Time;durP1;ratioP1;P1;durP2;ratioP2;P2;SDS_P1;SDS_P2;PMS_P1;PMS_P2;Temp;Humidity;BMP_temperature;BMP_pressure;BME280_temperature;BME280_humidity;BME280_pressure;Samples;Min_cycle;Max_cycle;Signal;HPM_P1;HPM_P2
2022/01/20 06:30:40;;;;;;;28.95;3.92;;;3.40;99.90;;;;;;5098939;28;20976;-66
2022/01/20 06:33:06;;;;;;;;;;;3.10;99.90;;;;;;5087497;28;20135;-68
2022/01/20 06:35:32;;;;;;;16.73;3.67;;;2.80;99.90;;;;;;5084517;28;20332;-69
2022/01/20 06:37:58;;;;;;;15.80;3.50;;;2.60;99.90;;;;;;5079364;28;20065;-68
2022/01/20 06:40:24;;;;;;;17.38;3.53;;;2.50;99.90;;;;;;5077613;28;20041;-69
2022/01/20 06:42:50;;;;;;;20.27;4.57;;;2.40;99.90;;;;;;5061333;28;20049;-72
2022/01/20 06:45:18;;;;;;;19.23;3.60;;;2.40;99.90;;;;;;5079422;28;20109;-70
2022/01/20 06:47:43;;;;;;;17.13;2.90;;;2.40;99.90;;;;;;5078967;28;20299;-69
2022/01/20 06:50:10;;;;;;;12.30;2.77;;;2.40;99.90;;;;;;5082166;28;20045;-73
2022/01/20 06:52:37;;;;;;;20.83;3.78;;;2.30;99.90;;;;;;5077281;28;20074;-73
2022/01/20 06:55:05;;;;;;;12.65;2.95;;;2.40;99.90;;;;;;5092825;28;20056;-73
2022/01/20 06:57:35;;;;;;;12.38;2.83;;;2.40;99.90;;;;;;5078965;28;20071;-74
2022/01/20 07:00:03;;;;;;;12.85;2.72;;;2.40;99.90;;;;;;5060927;28;20541;-68
2022/01/20 07:02:29;;;;;;;14.20;3.00;;;2.30;99.90;;;;;;5077564;28;20051;-71
2022/01/20 07:04:54;;;;;;;18.13;3.20;;;2.40;99.90;;;;;;5079201;28;20188;-66
2022/01/20 07:07:20;;;;;;;17.53;3.67;;;2.40;99.90;;;;;;5075800;28;20081;-65
2022/01/20 07:09:46;;;;;;;13.93;3.70;;;2.40;99.90;;;;;;5057700;28;20057;-66
2022/01/20 07:12:12;;;;;;;14.90;3.60;;;2.40;99.90;;;;;;5077269;28;20036;-66
2022/01/20 07:14:38;;;;;;;16.53;3.47;;;2.50;99.90;;;;;;5076832;28;20071;-71
2022/01/20 07:17:04;;;;;;;;;;;2.60;99.90;;;;;;5062244;28;20298;-69
2022/01/20 07:19:30;;;;;;;21.30;3.22;;;2.60;99.90;;;;;;5098667;28;19920;-71
2022/01/20 07:21:56;;;;;;;14.67;3.30;;;2.70;99.90;;;;;;5077112;28;20062;-67
2022/01/20 07:24:22;;;;;;;11.73;3.13;;;2.80;99.90;;;;;;5077911;28;20044;-71
2022/01/20 07:26:47;;;;;;;8.30;2.60;;;2.80;99.90;;;;;;5076887;28;20041;-67
2022/01/20 07:29:14;;;;;;;12.53;2.87;;;2.80;99.90;;;;;;5077107;28;20068;-67
2022/01/20 07:31:40;;;;;;;;;;;2.70;99.90;;;;;;5076269;28;20310;-66
2022/01/20 07:34:05;;;;;;;13.35;3.78;;;2.70;99.90;;;;;;5074981;28;19924;-67
2022/01/20 07:36:31;;;;;;;10.40;2.73;;;2.60;99.90;;;;;;5069206;28;20102;-70
2022/01/20 07:38:57;;;;;;;13.77;3.27;;;2.60;99.90;;;;;;5077929;28;20076;-71
2022/01/20 07:41:23;;;;;;;12.70;3.10;;;2.60;99.90;;;;;;5063973;28;20080;-71
2022/01/20 07:43:48;;;;;;;19.35;3.10;;;2.60;99.90;;;;;;5057106;28;20049;-70
2022/01/20 07:46:14;;;;;;;9.80;2.27;;;2.70;99.90;;;;;;5063693;28;20080;-75
2022/01/20 07:48:39;;;;;;;10.70;2.40;;;2.60;99.90;;;;;;5062996;28;20483;-74
2022/01/20 07:51:06;;;;;;;8.43;2.40;;;2.40;99.90;;;;;;5064374;28;20037;-70
2022/01/20 07:53:33;;;;;;;12.52;2.10;;;2.30;99.90;;;;;;5063054;28;20048;-70
2022/01/20 07:55:59;;;;;;;10.98;2.35;;;2.10;99.90;;;;;;5064739;28;20066;-73
2022/01/20 07:58:25;;;;;;;14.82;2.83;;;2.10;99.90;;;;;;5067863;28;20156;-74
2022/01/20 08:00:50;;;;;;;10.40;2.67;;;2.10;99.90;;;;;;5070540;28;20055;-75
2022/01/20 08:03:16;;;;;;;14.03;3.20;;;2.10;99.90;;;;;;5064464;28;20045;-73
2022/01/20 08:05:42;;;;;;;20.90;3.03;;;2.10;99.90;;;;;;5064909;28;20045;-70
2022/01/20 08:08:08;;;;;;;15.43;2.78;;;2.10;99.90;;;;;;5054529;28;20042;-72
2022/01/20 08:10:35;;;;;;;18.63;3.33;;;2.20;99.90;;;;;;5068623;28;20068;-70
2022/01/20 08:13:04;;;;;;;12.52;3.38;;;2.20;99.90;;;;;;5058428;28;20537;-68
2022/01/20 08:15:30;;;;;;;15.13;3.25;;;2.30;99.90;;;;;;5068158;28;20040;-68
2022/01/20 08:17:56;;;;;;;15.85;3.03;;;2.30;99.90;;;;;;5062328;28;20041;-72
2022/01/20 08:20:22;;;;;;;13.60;3.17;;;2.30;99.90;;;;;;5071218;28;20128;-72
2022/01/20 08:22:48;;;;;;;17.13;3.50;;;2.40;99.90;;;;;;5060596;28;20857;-72
2022/01/20 08:25:17;;;;;;;16.37;4.07;;;2.50;99.90;;;;;;5062639;28;20774;-75
2022/01/20 08:27:45;;;;;;;10.38;2.75;;;2.60;99.90;;;;;;5056208;28;20041;-73
2022/01/20 08:30:16;;;;;;;11.75;2.45;;;2.70;99.90;;;;;;5060521;28;20461;-72
2022/01/20 08:32:43;;;;;;;14.25;2.95;;;2.80;99.90;;;;;;5060283;28;20469;-70
2022/01/20 08:35:11;;;;;;;20.80;3.17;;;2.80;99.90;;;;;;5060084;28;20112;-75
2022/01/20 08:37:40;;;;;;;14.05;2.70;;;2.90;99.90;;;;;;5062215;28;20053;-75
2022/01/20 08:40:12;;;;;;;12.70;2.92;;;3.00;99.90;;;;;;5062480;28;20371;-68
2022/01/20 08:42:38;;;;;;;9.98;3.55;;;3.00;99.90;;;;;;5060460;28;20045;-70
2022/01/20 08:45:05;;;;;;;;;;;3.10;99.90;;;;;;5061255;28;20048;-71
2022/01/20 08:47:31;;;;;;;7.85;2.25;;;3.20;99.90;;;;;;5058145;28;19974;-71
2022/01/20 08:49:58;;;;;;;12.10;2.85;;;3.30;99.90;;;;;;5061950;28;20093;-73
2022/01/20 08:52:28;;;;;;;8.15;2.15;;;3.30;99.90;;;;;;5058598;28;20114;-70
2022/01/20 08:54:54;;;;;;;16.08;3.03;;;2.90;99.90;;;;;;5062022;28;20045;-72
2022/01/20 08:57:20;;;;;;;3.15;1.35;;;2.60;99.90;;;;;;5059712;28;20102;-74
2022/01/20 08:59:46;;;;;;;6.67;1.63;;;2.40;99.90;;;;;;5062066;28;20513;-72
2022/01/20 09:02:12;;;;;;;8.77;2.00;;;2.30;99.90;;;;;;5061168;28;20125;-66
2022/01/20 09:04:38;;;;;;;6.25;2.03;;;2.20;99.90;;;;;;5059820;28;20061;-76
2022/01/20 09:07:04;;;;;;;5.63;2.17;;;2.20;99.90;;;;;;5060176;28;20130;-77
2022/01/20 09:09:30;;;;;;;11.77;1.93;;;2.10;99.90;;;;;;5059429;28;20045;-71
2022/01/20 09:12:18;;;;;;;8.83;2.03;;;2.20;99.90;;;;;;5039321;28;20049;-71
2022/01/20 09:17:31;;;;;;;16.35;3.97;;;2.40;99.90;;;;;;5061815;28;20052;-72
2022/01/20 09:19:58;;;;;;;10.70;2.65;;;2.50;99.90;;;;;;5059737;28;20037;-73
2022/01/20 09:22:24;;;;;;;;;;;2.50;99.90;;;;;;5060845;28;20076;-75
2022/01/20 09:24:50;;;;;;;10.90;2.97;;;2.40;99.90;;;;;;5060991;28;20007;-75
2022/01/20 09:27:17;;;;;;;13.90;3.00;;;2.30;99.90;;;;;;5061201;28;20099;-76
2022/01/20 09:29:45;;;;;;;17.30;4.00;;;2.30;99.90;;;;;;5076246;28;20045;-65
2022/01/20 09:32:12;;;;;;;14.93;3.38;;;2.20;99.90;;;;;;5061482;28;20056;-75
2022/01/20 09:34:41;;;;;;;14.52;3.30;;;2.20;99.90;;;;;;5058979;28;20215;-77
2022/01/20 09:37:07;;;;;;;20.27;3.80;;;2.20;99.90;;;;;;5055448;28;20387;-78
2022/01/20 09:39:34;;;;;;;15.47;3.07;;;2.30;99.90;;;;;;5059667;28;20071;-77
2022/01/20 09:41:59;;;;;;;;;;;2.40;99.90;;;;;;5059271;28;20067;-76
2022/01/20 09:44:25;;;;;;;13.52;2.90;;;2.50;99.90;;;;;;5061028;28;19920;-76
2022/01/20 09:46:52;;;;;;;17.52;3.15;;;2.60;99.90;;;;;;5059387;28;20473;-78
2022/01/20 09:49:17;;;;;;;;;;;2.70;99.90;;;;;;5061462;28;20099;-77
2022/01/20 09:51:43;;;;;;;14.82;2.90;;;2.90;99.90;;;;;;5061056;28;19921;-77
2022/01/20 09:54:11;;;;;;;15.87;3.87;;;3.10;99.90;;;;;;5061421;28;20044;-76
2022/01/20 09:56:39;;;;;;;15.35;3.72;;;3.30;99.90;;;;;;5056733;28;20044;-75
2022/01/20 09:59:05;;;;;;;14.30;3.28;;;3.30;99.90;;;;;;5061027;28;20373;-75
2022/01/20 10:01:38;;;;;;;13.27;3.08;;;3.40;99.90;;;;;;5060942;28;20065;-70
2022/01/20 10:04:04;;;;;;;15.60;2.97;;;3.30;99.90;;;;;;5058337;28;20041;-69
2022/01/20 10:06:30;;;;;;;16.48;3.45;;;3.40;99.90;;;;;;5061048;28;20094;-69
2022/01/20 10:09:01;;;;;;;16.23;4.13;;;3.50;99.90;;;;;;5058529;28;20098;-70
2022/01/20 10:11:29;;;;;;;17.15;3.50;;;3.50;99.90;;;;;;5075424;28;20063;-71
2022/01/20 10:13:59;;;;;;;19.13;3.40;;;3.60;99.90;;;;;;5059060;28;20037;-70
2022/01/20 10:16:25;;;;;;;15.68;2.88;;;3.70;99.90;;;;;;5060985;28;20132;-65
2022/01/20 10:18:54;;;;;;;16.77;3.90;;;3.70;99.90;;;;;;5060854;28;20099;-66
2022/01/20 10:21:35;;;;;;;21.42;3.50;;;3.70;99.90;;;;;;5059231;28;20045;-65
2022/01/20 10:24:06;;;;;;;16.92;3.58;;;3.70;99.90;;;;;;5058858;28;20095;-65
2022/01/20 10:26:33;;;;;;;17.02;3.53;;;3.70;99.90;;;;;;5058517;28;20083;-64
2022/01/20 10:29:01;;;;;;;17.73;3.08;;;3.70;99.90;;;;;;5058491;28;20134;-64
2022/01/20 10:31:31;;;;;;;18.15;3.70;;;3.60;99.90;;;;;;5069755;28;20053;-64
2022/01/20 10:33:57;;;;;;;14.23;3.45;;;3.70;99.90;;;;;;5058044;28;20053;-64
2022/01/20 10:36:23;;;;;;;18.20;3.47;;;3.70;99.90;;;;;;5059299;28;20041;-63
2022/01/20 10:38:54;;;;;;;26.17;3.83;;;3.80;99.90;;;;;;5060542;28;20052;-63
2022/01/20 10:41:40;;;;;;;16.42;3.58;;;3.80;99.90;;;;;;5059690;28;20037;-64
2022/01/20 10:44:07;;;;;;;18.27;3.50;;;3.90;99.90;;;;;;5060465;28;20053;-64
2022/01/20 10:46:43;;;;;;;14.60;3.15;;;3.90;99.90;;;;;;5060320;28;20056;-65
2022/01/20 10:49:09;;;;;;;13.23;2.88;;;3.90;99.90;;;;;;5060974;28;20182;-64
2022/01/20 10:51:36;;;;;;;13.45;3.08;;;3.90;99.90;;;;;;5059097;28;20488;-65
2022/01/20 10:54:10;;;;;;;;;;;3.90;99.90;;;;;;5060739;28;20064;-64
2022/01/20 10:56:47;;;;;;;17.65;3.42;;;3.80;99.90;;;;;;5053928;28;19930;-66
2022/01/20 10:59:12;;;;;;;13.30;3.13;;;3.70;99.90;;;;;;5055214;28;20043;-63
2022/01/20 11:01:38;;;;;;;14.27;3.13;;;3.80;99.90;;;;;;5058373;28;20294;-65
2022/01/20 11:04:04;;;;;;;17.23;3.83;;;3.80;99.90;;;;;;5060528;28;20040;-65
2022/01/20 11:06:31;;;;;;;10.60;2.78;;;3.80;99.90;;;;;;5041039;28;20473;-64
2022/01/20 11:08:57;;;;;;;15.32;3.13;;;3.90;99.90;;;;;;4982903;28;20801;-68
2022/01/20 11:11:23;;;;;;;14.55;3.20;;;4.00;99.90;;;;;;5039015;28;20056;-63
2022/01/20 11:13:49;;;;;;;12.13;2.90;;;4.00;99.90;;;;;;5040456;28;20045;-64
2022/01/20 11:16:14;;;;;;;17.35;3.40;;;4.10;99.90;;;;;;5042313;28;20043;-71
2022/01/20 11:18:42;;;;;;;16.37;3.27;;;4.10;99.90;;;;;;5044474;28;20041;-64
2022/01/20 11:21:08;;;;;;;14.13;3.22;;;4.10;99.90;;;;;;5044104;28;20590;-64
2022/01/20 11:23:42;;;;;;;14.02;3.10;;;4.10;99.90;;;;;;5042238;28;20069;-65
2022/01/20 11:26:08;;;;;;;14.57;2.97;;;4.00;99.90;;;;;;5043602;28;20152;-65
2022/01/20 11:28:34;;;;;;;10.85;3.22;;;4.00;99.90;;;;;;5043695;28;20045;-65
2022/01/20 11:31:06;;;;;;;17.00;3.17;;;4.00;99.90;;;;;;5043334;28;20053;-66
2022/01/20 11:33:38;;;;;;;11.25;2.90;;;4.10;99.90;;;;;;5042240;28;20053;-65
2022/01/20 11:36:05;;;;;;;20.50;3.45;;;4.20;99.90;;;;;;5044311;28;20100;-73
2022/01/20 11:38:47;;;;;;;17.02;3.40;;;4.30;99.90;;;;;;5043224;28;20068;-65
2022/01/20 11:41:14;;;;;;;26.30;4.00;;;4.40;99.90;;;;;;5043604;28;20061;-64
2022/01/20 11:43:53;;;;;;;21.52;4.43;;;4.50;99.90;;;;;;5045125;28;20068;-64
2022/01/20 11:46:22;;;;;;;18.67;5.18;;;4.40;99.90;;;;;;5045523;28;20041;-64
2022/01/20 11:48:59;;;;;;;18.88;3.42;;;4.30;99.90;;;;;;5049041;28;20094;-64
2022/01/20 11:51:41;;;;;;;15.13;3.55;;;4.10;99.90;;;;;;5052532;28;20076;-64
2022/01/20 11:54:06;;;;;;;18.60;4.03;;;4.00;99.90;;;;;;5049147;28;20053;-64
2022/01/20 11:56:41;;;;;;;16.63;3.22;;;4.00;99.90;;;;;;5043491;28;20057;-64
2022/01/20 11:59:09;;;;;;;13.48;3.58;;;4.00;99.90;;;;;;5038943;28;20152;-65
2022/01/20 12:01:47;;;;;;;20.77;4.13;;;4.20;99.90;;;;;;5043346;28;20179;-66
2022/01/20 12:04:14;;;;;;;23.65;3.55;;;4.20;99.90;;;;;;5047922;28;20040;-63
2022/01/20 12:06:46;;;;;;;13.93;3.25;;;4.20;99.90;;;;;;5044730;28;20045;-64
2022/01/20 12:09:14;;;;;;;10.80;2.33;;;4.10;99.90;;;;;;5045189;28;20041;-64
2022/01/20 12:11:45;;;;;;;12.57;2.75;;;3.90;99.90;;;;;;5046508;28;20037;-64
2022/01/20 12:14:25;;;;;;;16.00;2.75;;;3.80;99.90;;;;;;5042641;28;20103;-64
2022/01/20 12:16:50;;;;;;;13.25;3.50;;;3.60;99.90;;;;;;5041576;28;20112;-73
2022/01/20 12:19:16;;;;;;;14.37;2.90;;;3.60;99.90;;;;;;5042931;28;20037;-72
2022/01/20 12:21:47;;;;;;;14.73;2.80;;;3.60;99.90;;;;;;5043150;28;20045;-67
2022/01/20 12:24:13;;;;;;;15.70;3.33;;;3.70;99.90;;;;;;5042344;28;20037;-70
2022/01/20 12:26:39;;;;;;;13.00;2.67;;;3.80;99.90;;;;;;5041158;28;20049;-71
2022/01/20 12:29:07;;;;;;;10.10;2.77;;;4.00;99.90;;;;;;5043087;28;20330;-71
2022/01/20 12:31:44;;;;;;;18.80;3.35;;;4.10;99.90;;;;;;5041557;28;20053;-71
2022/01/20 12:34:13;;;;;;;16.63;3.70;;;4.10;99.90;;;;;;5040242;28;20079;-66
2022/01/20 12:36:39;;;;;;;18.13;3.60;;;4.20;99.90;;;;;;5041129;28;20052;-76
2022/01/20 12:39:06;;;;;;;15.20;3.50;;;4.20;99.90;;;;;;5042330;28;20373;-75
2022/01/20 12:41:33;;;;;;;;;;;4.20;99.90;;;;;;5041199;28;20076;-74
2022/01/20 12:44:05;;;;;;;18.65;3.47;;;4.20;99.90;;;;;;5039382;28;19988;-75
2022/01/20 12:46:34;;;;;;;19.58;4.50;;;4.30;99.90;;;;;;5038510;28;20129;-76
2022/01/20 12:49:04;;;;;;;12.35;3.47;;;4.30;99.90;;;;;;5042026;28;20071;-75
2022/01/20 12:51:39;;;;;;;17.88;3.75;;;4.40;99.90;;;;;;5040439;28;20045;-75
2022/01/20 12:54:07;;;;;;;25.80;3.63;;;4.40;99.90;;;;;;5055348;28;20103;-75
2022/01/20 12:56:36;;;;;;;12.63;3.58;;;4.50;99.90;;;;;;5040872;28;20037;-75
2022/01/20 12:59:03;;;;;;;11.00;3.90;;;4.60;99.90;;;;;;5042442;28;20048;-76
2022/01/20 13:01:44;;;;;;;18.90;4.18;;;4.60;99.90;;;;;;5040619;28;20084;-74
2022/01/20 13:04:13;;;;;;;16.02;3.47;;;4.60;99.90;;;;;;5025644;28;20071;-71
2022/01/20 13:06:54;;;;;;;12.35;2.90;;;4.80;99.90;;;;;;5044252;28;20045;-70
2022/01/20 13:09:22;;;;;;;16.80;3.45;;;4.70;99.90;;;;;;5040487;28;20091;-74
2022/01/20 13:11:57;;;;;;;15.13;2.92;;;4.30;99.90;;;;;;5040574;28;20045;-71
2022/01/20 13:14:34;;;;;;;14.70;3.05;;;4.10;99.90;;;;;;5040015;28;20080;-71
2022/01/20 13:17:01;;;;;;;13.95;2.83;;;3.80;99.90;;;;;;5041044;28;20041;-68
2022/01/20 13:19:39;;;;;;;9.18;2.30;;;3.70;99.90;;;;;;5041971;28;20054;-69
2022/01/20 13:22:18;;;;;;;4.60;1.83;;;3.50;99.90;;;;;;5043042;28;20041;-69
2022/01/20 13:24:44;;;;;;;4.32;1.63;;;3.40;99.90;;;;;;5045642;28;20084;-69
2022/01/20 13:27:12;;;;;;;3.28;1.60;;;3.40;99.90;;;;;;5046806;28;20038;-70
2022/01/20 13:29:51;;;;;;;5.90;1.90;;;3.40;99.90;;;;;;5042142;28;20053;-70
2022/01/20 13:32:18;;;;;;;6.20;1.73;;;3.40;99.90;;;;;;5042096;28;20049;-67
2022/01/20 13:34:58;;;;;;;8.50;1.98;;;3.50;99.90;;;;;;5041016;28;20045;-68
2022/01/20 13:37:24;;;;;;;14.77;2.67;;;3.60;99.90;;;;;;5036880;28;20469;-68
2022/01/20 13:39:55;;;;;;;7.07;2.38;;;3.60;99.90;;;;;;5040446;28;20392;-70
2022/01/20 13:42:46;;;;;;;7.70;2.05;;;3.70;99.90;;;;;;5038563;28;20060;-69
2022/01/20 13:45:17;;;;;;;9.05;1.88;;;3.60;99.90;;;;;;5042903;28;20081;-69
2022/01/20 13:47:56;;;;;;;11.93;2.08;;;3.60;99.90;;;;;;5040624;28;20060;-71
2022/01/20 13:50:24;;;;;;;8.18;2.00;;;3.60;99.90;;;;;;5039800;28;20041;-70
2022/01/20 13:52:51;;;;;;;8.60;2.08;;;3.60;99.90;;;;;;5040796;28;20053;-70
2022/01/20 13:55:29;;;;;;;16.83;2.33;;;3.70;99.90;;;;;;5040442;28;20050;-70
2022/01/20 13:57:57;;;;;;;11.48;3.35;;;3.70;99.90;;;;;;5041581;28;20045;-70
2022/01/20 14:00:26;;;;;;;13.43;2.83;;;3.80;99.90;;;;;;5041162;28;20098;-70
2022/01/20 14:02:52;;;;;;;20.55;2.72;;;3.90;99.90;;;;;;5039444;28;20072;-69
2022/01/20 14:05:19;;;;;;;13.47;3.60;;;3.90;99.90;;;;;;5040773;28;20086;-69
2022/01/20 14:07:45;;;;;;;17.63;3.00;;;4.00;99.90;;;;;;5037440;28;20292;-71
2022/01/20 14:10:11;;;;;;;12.90;3.30;;;4.10;99.90;;;;;;5039269;28;20052;-71
2022/01/20 14:12:36;;;;;;;19.38;3.70;;;4.10;99.90;;;;;;5039756;28;20311;-70
2022/01/20 14:15:03;;;;;;;24.55;4.32;;;4.20;99.90;;;;;;5041057;28;20053;-71
2022/01/20 14:17:34;;;;;;;28.95;4.80;;;4.10;99.90;;;;;;5038775;28;20049;-71
2022/01/20 14:20:06;;;;;;;16.02;3.72;;;4.10;99.90;;;;;;5047071;28;20041;-70
2022/01/20 14:22:31;;;;;;;17.30;3.58;;;4.00;99.90;;;;;;5040208;28;20057;-70
2022/01/20 14:24:57;;;;;;;18.57;3.93;;;4.00;99.90;;;;;;5042332;28;20049;-71
2022/01/20 14:27:23;;;;;;;15.77;3.60;;;3.90;99.90;;;;;;5039883;28;20041;-70
2022/01/20 14:29:48;;;;;;;14.77;3.10;;;3.90;99.90;;;;;;5040151;28;20061;-72
2022/01/20 14:32:15;;;;;;;11.33;2.83;;;3.90;99.90;;;;;;5057010;28;20112;-72
2022/01/20 14:34:41;;;;;;;;;;;3.90;99.90;;;;;;5040678;28;20449;-70
2022/01/20 14:37:08;;;;;;;12.20;3.10;;;3.90;99.90;;;;;;5041344;28;19925;-70
2022/01/20 14:39:34;;;;;;;13.60;2.97;;;3.90;99.90;;;;;;5039783;28;20053;-68
2022/01/20 14:42:08;;;;;;;11.40;3.00;;;3.90;99.90;;;;;;5041874;28;20108;-67
2022/01/20 14:44:35;;;;;;;9.00;2.63;;;3.80;99.90;;;;;;5041670;28;20044;-69
2022/01/20 14:47:01;;;;;;;9.02;3.10;;;3.80;99.90;;;;;;5041362;28;20034;-69
2022/01/20 14:49:27;;;;;;;17.65;3.67;;;3.70;99.90;;;;;;5040038;28;20061;-69
2022/01/20 14:51:53;;;;;;;15.23;3.30;;;3.70;99.90;;;;;;5031466;28;20164;-70
2022/01/20 14:54:18;;;;;;;19.60;3.97;;;3.70;99.90;;;;;;5028494;28;20107;-69
2022/01/20 14:56:44;;;;;;;10.90;3.27;;;3.80;99.90;;;;;;5043887;28;20057;-69
2022/01/20 14:59:10;;;;;;;17.00;3.57;;;3.90;99.90;;;;;;5032957;28;20042;-69
2022/01/20 15:01:37;;;;;;;17.37;3.80;;;3.90;99.90;;;;;;5053177;28;20040;-69
2022/01/20 15:04:03;;;;;;;15.65;4.25;;;3.90;99.90;;;;;;5053575;28;20433;-69
2022/01/20 15:06:29;;;;;;;;;;;3.90;99.90;;;;;;5060975;28;20079;-69
2022/01/20 15:08:55;;;;;;;16.27;3.55;;;3.80;99.90;;;;;;5044813;28;19921;-68
2022/01/20 15:11:20;;;;;;;15.87;3.80;;;3.80;99.90;;;;;;5036886;28;20069;-71
2022/01/20 15:13:46;;;;;;;12.10;3.20;;;3.80;99.90;;;;;;5043757;28;20475;-72
2022/01/20 15:16:12;;;;;;;13.57;3.00;;;3.80;99.90;;;;;;5056250;28;20348;-72
2022/01/20 15:18:37;;;;;;;16.53;3.00;;;3.90;99.90;;;;;;5051390;28;20093;-71
2022/01/20 15:21:03;;;;;;;16.17;3.10;;;3.90;99.90;;;;;;5047289;28;20087;-71
2022/01/20 15:23:29;;;;;;;11.93;2.77;;;3.90;99.90;;;;;;5050591;28;20116;-71
2022/01/20 15:25:55;;;;;;;12.10;3.30;;;3.80;99.90;;;;;;5046162;28;20045;-70
2022/01/20 15:28:20;;;;;;;14.18;3.00;;;3.90;99.90;;;;;;5046913;28;20081;-72
2022/01/20 15:30:46;;;;;;;17.70;3.10;;;3.90;99.90;;;;;;5055061;28;20058;-72
2022/01/20 15:33:14;;;;;;;25.42;3.83;;;3.90;99.90;;;;;;5050940;28;20041;-71
2022/01/20 15:35:41;;;;;;;9.70;2.83;;;3.90;99.90;;;;;;5062935;28;20129;-70
2022/01/20 15:38:07;;;;;;;18.13;3.53;;;3.90;99.90;;;;;;5053738;28;20041;-72
2022/01/20 15:40:33;;;;;;;13.63;3.47;;;3.90;99.90;;;;;;5046791;28;20054;-77
2022/01/20 15:42:58;;;;;;;17.20;3.60;;;3.90;99.90;;;;;;5044638;28;20088;-73
2022/01/20 15:45:24;;;;;;;14.00;3.53;;;3.90;99.90;;;;;;5042926;28;20140;-71
2022/01/20 15:47:50;;;;;;;13.37;3.33;;;3.90;99.90;;;;;;5044267;28;20564;-72
2022/01/20 15:50:15;;;;;;;17.57;3.30;;;4.00;99.90;;;;;;5026773;28;20052;-71
2022/01/20 15:52:41;;;;;;;19.83;4.10;;;3.90;99.90;;;;;;5044791;28;20192;-74
2022/01/20 15:55:09;;;;;;;20.63;4.10;;;4.00;99.90;;;;;;5042425;28;20056;-73
2022/01/20 15:57:34;;;;;;;17.67;4.47;;;3.90;99.90;;;;;;5042595;28;20130;-71
2022/01/20 16:00:00;;;;;;;20.00;3.10;;;3.80;99.90;;;;;;5042536;28;20481;-72
2022/01/20 16:02:26;;;;;;;20.10;3.40;;;3.70;99.90;;;;;;5043020;28;20085;-72
2022/01/20 16:04:52;;;;;;;17.85;3.67;;;3.60;99.90;;;;;;5042637;28;20056;-71
2022/01/20 16:07:18;;;;;;;18.10;4.75;;;3.50;99.90;;;;;;5039887;28;20083;-71
2022/01/20 16:09:43;;;;;;;8.87;2.20;;;3.50;99.90;;;;;;5028325;28;20097;-69
2022/01/20 16:12:09;;;;;;;11.33;2.63;;;3.30;99.90;;;;;;5047973;28;20041;-72
2022/01/20 16:14:35;;;;;;;8.30;2.03;;;3.00;99.90;;;;;;5043019;28;20465;-75
2022/01/20 16:17:01;;;;;;;6.37;1.93;;;2.70;99.90;;;;;;5043984;28;20038;-70
2022/01/20 16:19:27;;;;;;;9.02;2.75;;;2.40;99.90;;;;;;5042561;28;20057;-70
2022/01/20 16:21:55;;;;;;;7.13;1.77;;;2.20;99.90;;;;;;5043988;28;20072;-68
2022/01/20 16:24:21;;;;;;;16.48;3.55;;;2.10;99.90;;;;;;5039346;28;20124;-69
2022/01/20 16:26:46;;;;;;;15.33;2.60;;;2.00;99.90;;;;;;5042388;28;20041;-76
2022/01/20 16:29:12;;;;;;;9.43;2.33;;;1.90;99.90;;;;;;5043466;28;20064;-68
2022/01/20 16:31:38;;;;;;;9.10;2.60;;;1.90;99.90;;;;;;5041999;28;20121;-68
2022/01/20 16:34:03;;;;;;;9.05;2.72;;;2.00;99.90;;;;;;5048021;28;20148;-68
2022/01/20 16:36:29;;;;;;;14.63;2.90;;;2.00;99.90;;;;;;5058063;28;20133;-70
2022/01/20 16:38:55;;;;;;;9.37;2.43;;;2.00;99.90;;;;;;5042123;28;20374;-70
2022/01/20 16:41:21;;;;;;;11.97;3.27;;;2.00;99.90;;;;;;5042214;28;20095;-70
2022/01/20 16:43:46;;;;;;;12.70;2.70;;;2.00;99.90;;;;;;5042186;28;20113;-71
2022/01/20 16:46:12;;;;;;;14.10;3.60;;;2.10;99.90;;;;;;5043693;28;20459;-69
2022/01/20 16:48:40;;;;;;;13.83;3.47;;;2.10;99.90;;;;;;5037365;28;20046;-69
2022/01/20 16:51:05;;;;;;;11.93;2.35;;;2.20;99.90;;;;;;5024595;28;20101;-69
2022/01/20 16:53:31;;;;;;;15.37;2.90;;;2.20;99.90;;;;;;5043518;28;20033;-69
2022/01/20 16:55:57;;;;;;;10.97;2.83;;;2.30;99.90;;;;;;5043844;28;20045;-71
2022/01/20 16:58:23;;;;;;;11.93;3.08;;;2.30;99.90;;;;;;5043127;28;20457;-69
2022/01/20 17:00:48;;;;;;;17.23;3.83;;;2.30;99.90;;;;;;5045345;28;20045;-70
2022/01/20 17:03:14;;;;;;;23.57;3.70;;;2.30;99.90;;;;;;5043141;28;20054;-70
2022/01/20 17:05:41;;;;;;;18.13;3.53;;;2.40;99.90;;;;;;5043348;28;20290;-64
2022/01/20 17:08:08;;;;;;;15.18;2.95;;;2.40;99.90;;;;;;5043123;28;20053;-69
2022/01/20 17:10:34;;;;;;;15.20;3.70;;;2.40;99.90;;;;;;5041221;28;20088;-71
2022/01/20 17:13:00;;;;;;;23.77;4.83;;;2.40;99.90;;;;;;5041980;28;20045;-70
2022/01/20 17:15:26;;;;;;;27.23;4.55;;;2.50;99.90;;;;;;5042137;28;20480;-69
2022/01/20 17:17:53;;;;;;;21.52;4.95;;;2.60;99.90;;;;;;5041432;28;20051;-70
2022/01/20 17:20:20;;;;;;;19.40;3.63;;;2.70;99.90;;;;;;5042924;28;20137;-70
2022/01/20 17:22:46;;;;;;;;;;;2.80;99.90;;;;;;5025211;28;20049;-70
2022/01/20 17:25:12;;;;;;;30.63;4.47;;;2.80;99.90;;;;;;5042878;28;19928;-66
2022/01/20 17:27:38;;;;;;;16.35;4.68;;;2.80;99.90;;;;;;5041357;28;20069;-67
2022/01/20 17:30:05;;;;;;;;;;;2.90;99.90;;;;;;5043149;28;20053;-69
2022/01/20 17:32:32;;;;;;;23.13;4.43;;;2.90;99.90;;;;;;5041121;28;19935;-68
2022/01/20 17:34:57;;;;;;;20.92;4.15;;;2.90;99.90;;;;;;5057618;28;20045;-69
2022/01/20 17:37:23;;;;;;;23.77;5.20;;;3.00;99.90;;;;;;5042656;28;20045;-65
2022/01/20 17:39:49;;;;;;;18.93;3.53;;;3.00;99.90;;;;;;5047982;28;20030;-65
2022/01/20 17:42:14;;;;;;;12.87;3.20;;;3.10;99.90;;;;;;5045898;28;20037;-61
2022/01/20 17:44:40;;;;;;;17.03;2.50;;;3.00;99.90;;;;;;5059384;28;20046;-64
2022/01/20 17:47:06;;;;;;;9.40;2.10;;;3.00;99.90;;;;;;5041040;28;20111;-63
2022/01/20 17:49:31;;;;;;;8.85;2.13;;;3.00;99.90;;;;;;5041967;28;20045;-65
2022/01/20 17:51:57;;;;;;;8.80;2.83;;;3.00;99.90;;;;;;5041344;28;20049;-70
2022/01/20 17:54:23;;;;;;;6.13;1.90;;;2.90;99.90;;;;;;5042491;28;20060;-66
2022/01/20 17:56:49;;;;;;;15.47;2.80;;;2.90;99.90;;;;;;5040543;28;20391;-67
2022/01/20 17:59:16;;;;;;;7.90;2.30;;;2.90;99.90;;;;;;5040864;28;20061;-69
2022/01/20 18:01:41;;;;;;;;;;;2.90;99.90;;;;;;5046668;28;20052;-70
2022/01/20 18:04:10;;;;;;;9.82;2.40;;;2.90;99.90;;;;;;5049374;28;19921;-67
2022/01/20 18:06:36;;;;;;;12.43;3.78;;;2.80;99.90;;;;;;5049216;28;20485;-68
2022/01/20 18:09:02;;;;;;;16.33;3.15;;;2.90;99.90;;;;;;5032371;28;20057;-69
2022/01/20 18:11:28;;;;;;;13.13;3.17;;;2.80;99.90;;;;;;5049345;28;20137;-73
2022/01/20 18:13:53;;;;;;;13.07;3.23;;;2.80;99.90;;;;;;5050390;28;20377;-74
2022/01/20 18:16:20;;;;;;;15.03;2.83;;;2.80;99.90;;;;;;5048540;28;20467;-74
2022/01/20 18:18:45;;;;;;;12.98;3.40;;;2.90;99.90;;;;;;5052507;28;20045;-74
2022/01/20 18:21:11;;;;;;;18.03;3.70;;;2.90;99.90;;;;;;5049517;28;20114;-73
2022/01/20 18:23:37;;;;;;;15.20;3.45;;;2.90;99.90;;;;;;5050242;28;20057;-72
2022/01/20 18:26:03;;;;;;;28.73;4.57;;;3.00;99.90;;;;;;5049304;28;20037;-72
2022/01/20 18:28:29;;;;;;;14.35;3.88;;;3.00;99.90;;;;;;5050300;28;20450;-73
2022/01/20 18:30:55;;;;;;;20.20;3.70;;;3.00;99.90;;;;;;5050646;28;20057;-72
2022/01/20 18:33:21;;;;;;;19.37;3.87;;;2.90;99.90;;;;;;5049946;28;20065;-70
2022/01/20 18:35:51;;;;;;;25.50;4.40;;;2.90;99.90;;;;;;5055166;28;20300;-69
2022/01/20 18:38:17;;;;;;;21.20;3.75;;;2.80;99.90;;;;;;5040115;28;20288;-70
2022/01/20 18:40:44;;;;;;;23.57;4.63;;;2.70;99.90;;;;;;5040025;28;20127;-70
2022/01/20 18:43:10;;;;;;;19.70;3.50;;;2.60;99.90;;;;;;5036920;28;20049;-70
2022/01/20 18:45:36;;;;;;;19.63;3.70;;;2.50;99.90;;;;;;5021018;28;20254;-70
2022/01/20 18:48:02;;;;;;;24.80;4.60;;;2.50;99.90;;;;;;5041004;28;20045;-70
2022/01/20 18:50:28;;;;;;;14.85;3.65;;;2.50;99.90;;;;;;5041410;28;20084;-70
2022/01/20 18:52:54;;;;;;;18.43;3.63;;;2.50;99.90;;;;;;5041655;28;20068;-69
2022/01/20 18:55:20;;;;;;;15.90;3.28;;;2.50;99.90;;;;;;5040086;28;20053;-66
2022/01/20 18:57:46;;;;;;;15.07;3.95;;;2.50;99.90;;;;;;5041646;28;20049;-64
2022/01/20 19:00:17;;;;;;;15.20;3.30;;;2.50;99.90;;;;;;5040036;28;20060;-68
2022/01/20 19:02:43;;;;;;;22.80;4.55;;;2.50;99.90;;;;;;5032983;28;20053;-70
2022/01/20 19:05:11;;;;;;;25.30;4.22;;;2.50;99.90;;;;;;5037809;28;20125;-69
2022/01/20 19:07:37;;;;;;;18.48;3.70;;;2.50;99.90;;;;;;5027575;28;20087;-69
2022/01/20 19:10:05;;;;;;;18.47;4.17;;;2.40;99.90;;;;;;5030255;28;20042;-70
2022/01/20 19:12:31;;;;;;;22.75;3.85;;;2.40;99.90;;;;;;5039961;28;20210;-69
2022/01/20 19:14:57;;;;;;;25.13;4.43;;;2.40;99.90;;;;;;5040450;28;20037;-69
2022/01/20 19:17:23;;;;;;;16.13;4.23;;;2.30;99.90;;;;;;5043620;28;20057;-70
2022/01/20 19:19:49;;;;;;;26.52;4.60;;;2.30;99.90;;;;;;5045535;28;20310;-69
2022/01/20 19:22:15;;;;;;;22.50;4.72;;;2.30;99.90;;;;;;5023534;28;20059;-69
2022/01/20 19:24:43;;;;;;;32.63;6.23;;;2.30;99.90;;;;;;5041397;28;20124;-70
2022/01/20 19:27:09;;;;;;;20.05;4.05;;;2.30;99.90;;;;;;5045112;28;20052;-72